Green City, MO (63545)

3:26 PM CST on December 18, 2014 (GMT -0600)
KMOMILAN2 | Change Station
CLOSE
Current Station
Personal Weather Station
Location: Milan, MO
Elevation: 910 ft
Nearby Weather Stations

Elev 910 ft 40.17 °N, 93.09 °W | Updated 9 seconds ago

Overcast
Overcast
34.3 °F
Feels Like 34 °F
N
0.0
Wind Variable Wind from ENE
Gusts 0.0 mph

Today
High -- | Low -- °F
--% Chance of Precip.
Yesterday
High -- | Low -- °F
Precip. -- in
7:29 AM 4:47 PM
Waning Crescent, 12% visible
Pressure 30.27 in
Visibility 8.0 miles
Clouds Overcast 1000 ft
Windchill 34 °F
Dew Point 28 °F
Humidity 78%
Rainfall 0.00 in
Snow Depth Not available.
UV 0 out of 12
Pollen .10 out of 12
Air Quality Not available.
Flu Activity Not available.
METAR KIRK 182055Z AUTO 05003KT 8SM OVC010 M01/M03 A3022 RMK AO2 SLP249 60001 T10061028 55010

More Conditions Fewer Conditions

Pressure 30.27 in
Visibility 8.0 miles
Clouds Overcast 1000 ft
Windchill 34 °F
Dew Point 28 °F
Humidity 78%
Rainfall 0.00 in
Snow Depth Not available.
UV 0 out of 12
Pollen .10 out of 12
Air Quality Not available.
Flu Activity Not available.
METAR KIRK 182055Z AUTO 05003KT 8SM OVC010 M01/M03 A3022 RMK AO2 SLP249 60001 T10061028 55010

More Conditions Fewer Conditions

10-Day Weather Forecast

Almanac

Astronomy

Dec. 18, 2014 Rise Set
Actual Time
Civil Twilight
Nautical Twilight
Astronomical Twilight
Moon
Length of Visible Light
Length of Day
Tomorrow will be .
, % of the Moon is Illuminated

Today's Extremes

State Highs State Lows

Community

WunderPhotos

Upload Photos

1,778,997 photos uploaded!

WunderBlogs® & News

Nearby

Air Quality

  Air Quality AQ Index Pollutant
Not available.

Snow Depth

Station Depth Elevation

Earthquake Activity

City Distance Mag. Time & Date
Minimum magnitude displayed is 2.5.

Coastal Water Temperatures

Place Temperature

Nearby Weather Stations